Terminal Aerodrome Forecast
Issued by NWS

Home | Current Version | Previous Version | Text Only | Print | Product List | Glossary On
Versions: 1 2 3 4 5 6 7 8 9 10 11 12 13 14 15 16
000
FTUS46 KHNX 311139
TAFFAT
TAF
KFAT 311139Z 3112/0112 00000KT 1SM BR BKN200
     FM311800 VRB03KT 2SM BR SCT009 BKN200
     FM312000 VRB03KT 3SM HZ SCT020=

USA.gov is the U.S. government's official web portal to all federal, state and local government web resources and services.